Terminal Aerodrome Forecast
Issued by NWS

Home | Current Version | Previous Version | Text Only | Print | Product List | Glossary On
Versions: 1 2 3 4 5 6 7 8 9 10 11 12 13 14 15 16 17 18 19 20 21 22 23 24 25
000
FTUS41 KBGM 230500
TAFRME
TAF
KRME 230532Z 2306/2406 33008KT P6SM FEW020 OVC080
      TEMPO 2311/2315 BKN020
     FM231500 33012KT P6SM BKN025 OVC060
      TEMPO 2319/2323 3SM -SHRA OVC025
     FM240200 32007KT P6SM FEW035 OVC060=

USA.gov is the U.S. government's official web portal to all federal, state and local government web resources and services.